sensor_id;sensor_type;location;lat;lon;timestamp;pressure;altitude;pressure_sealevel;temperature
48628;BMP280;34424;52.234;6.500;2023-08-01T00:04:45;99752.84;;;14.29
48628;BMP280;34424;52.234;6.500;2023-08-01T00:09:45;99752.54;;;14.34
48628;BMP280;34424;52.234;6.500;2023-08-01T00:14:45;99742.94;;;14.39
48628;BMP280;34424;52.234;6.500;2023-08-01T00:19:45;99744.23;;;14.4
48628;BMP280;34424;52.234;6.500;2023-08-01T00:24:45;99744.94;;;14.4
48628;BMP280;34424;52.234;6.500;2023-08-01T00:29:45;99743.14;;;14.42
48628;BMP280;34424;52.234;6.500;2023-08-01T00:34:45;99745.05;;;14.43
48628;BMP280;34424;52.234;6.500;2023-08-01T00:39:45;99733.63;;;14.42
48628;BMP280;34424;52.234;6.500;2023-08-01T00:44:45;99725.91;;;14.35
48628;BMP280;34424;52.234;6.500;2023-08-01T00:49:45;99713.31;;;14.36
48628;BMP280;34424;52.234;6.500;2023-08-01T00:54:45;99709.7;;;14.31
48628;BMP280;34424;52.234;6.500;2023-08-01T00:59:45;99705.7;;;14.3
48628;BMP280;34424;52.234;6.500;2023-08-01T01:04:45;99688.33;;;14.19
48628;BMP280;34424;52.234;6.500;2023-08-01T01:09:45;99682.61;;;14.09
48628;BMP280;34424;52.234;6.500;2023-08-01T01:14:45;99679.5;;;14.02
48628;BMP280;34424;52.234;6.500;2023-08-01T01:19:45;99673.56;;;13.99
48628;BMP280;34424;52.234;6.500;2023-08-01T01:24:45;99673.22;;;14.03
48628;BMP280;34424;52.234;6.500;2023-08-01T01:29:45;99668.67;;;14.02
48628;BMP280;34424;52.234;6.500;2023-08-01T01:34:45;99665.34;;;14.02
48628;BMP280;34424;52.234;6.500;2023-08-01T01:39:45;99666.59;;;14.01
48628;BMP280;34424;52.234;6.500;2023-08-01T01:44:45;99655.94;;;13.98
48628;BMP280;34424;52.234;6.500;2023-08-01T01:49:45;99658.34;;;14
48628;BMP280;34424;52.234;6.500;2023-08-01T01:54:45;99658.28;;;13.98
48628;BMP280;34424;52.234;6.500;2023-08-01T01:59:45;99659.95;;;13.94
48628;BMP280;34424;52.234;6.500;2023-08-01T02:04:45;99657.51;;;13.89
48628;BMP280;34424;52.234;6.500;2023-08-01T02:09:45;99646.61;;;13.83
48628;BMP280;34424;52.234;6.500;2023-08-01T02:14:45;99637.55;;;13.77
48628;BMP280;34424;52.234;6.500;2023-08-01T02:19:45;99644.59;;;13.71
48628;BMP280;34424;52.234;6.500;2023-08-01T02:24:45;99638.99;;;13.66
48628;BMP280;34424;52.234;6.500;2023-08-01T02:29:45;99643.36;;;13.64
48628;BMP280;34424;52.234;6.500;2023-08-01T02:34:45;99643.58;;;13.6
48628;BMP280;34424;52.234;6.500;2023-08-01T02:39:45;99641.78;;;13.48
48628;BMP280;34424;52.234;6.500;2023-08-01T02:44:45;99638.25;;;13.31
48628;BMP280;34424;52.234;6.500;2023-08-01T02:49:45;99639.05;;;13.06
48628;BMP280;34424;52.234;6.500;2023-08-01T02:54:45;99642.44;;;12.8
48628;BMP280;34424;52.234;6.500;2023-08-01T02:59:45;99644.08;;;12.64
48628;BMP280;34424;52.234;6.500;2023-08-01T03:04:45;99638.3;;;12.49
48628;BMP280;34424;52.234;6.500;2023-08-01T03:09:45;99645.59;;;12.41
48628;BMP280;34424;52.234;6.500;2023-08-01T03:14:45;99647.09;;;12.32
48628;BMP280;34424;52.234;6.500;2023-08-01T03:19:45;99648.89;;;12.23
48628;BMP280;34424;52.234;6.500;2023-08-01T03:24:45;99646.95;;;12.16
48628;BMP280;34424;52.234;6.500;2023-08-01T03:29:45;99645.66;;;12.13
48628;BMP280;34424;52.234;6.500;2023-08-01T03:34:45;99648.1;;;12.09
48628;BMP280;34424;52.234;6.500;2023-08-01T03:39:45;99650.91;;;12.08
48628;BMP280;34424;52.234;6.500;2023-08-01T03:44:45;99656.06;;;12.08
48628;BMP280;34424;52.234;6.500;2023-08-01T03:49:45;99650.44;;;12.04
48628;BMP280;34424;52.234;6.500;2023-08-01T03:54:45;99652.56;;;11.96
48628;BMP280;34424;52.234;6.500;2023-08-01T03:59:45;99651.94;;;12.03
48628;BMP280;34424;52.234;6.500;2023-08-01T04:04:45;99657.72;;;12.16
48628;BMP280;34424;52.234;6.500;2023-08-01T04:09:45;99661.16;;;12.35
48628;BMP280;34424;52.234;6.500;2023-08-01T04:14:45;99658.64;;;12.54
48628;BMP280;34424;52.234;6.500;2023-08-01T04:19:45;99658.84;;;12.72
48628;BMP280;34424;52.234;6.500;2023-08-01T04:24:45;99666.48;;;12.86
48628;BMP280;34424;52.234;6.500;2023-08-01T04:29:45;99670.66;;;13.01
48628;BMP280;34424;52.234;6.500;2023-08-01T04:34:45;99667.01;;;13.17
48628;BMP280;34424;52.234;6.500;2023-08-01T04:39:45;99665.68;;;13.28
48628;BMP280;34424;52.234;6.500;2023-08-01T04:44:45;99665.3;;;13.35
48628;BMP280;34424;52.234;6.500;2023-08-01T04:49:45;99668.72;;;13.31
48628;BMP280;34424;52.234;6.500;2023-08-01T04:54:45;99666.67;;;13.33
48628;BMP280;34424;52.234;6.500;2023-08-01T04:59:45;99663.02;;;13.3
48628;BMP280;34424;52.234;6.500;2023-08-01T05:04:45;99662.14;;;13.26
48628;BMP280;34424;52.234;6.500;2023-08-01T05:09:45;99664.68;;;13.3
48628;BMP280;34424;52.234;6.500;2023-08-01T05:14:45;99671.42;;;13.43
48628;BMP280;34424;52.234;6.500;2023-08-01T05:19:45;99673.23;;;13.73
48628;BMP280;34424;52.234;6.500;2023-08-01T05:24:45;99676.19;;;13.98
48628;BMP280;34424;52.234;6.500;2023-08-01T05:29:45;99683.33;;;14.06
48628;BMP280;34424;52.234;6.500;2023-08-01T05:34:45;99692.34;;;14
48628;BMP280;34424;52.234;6.500;2023-08-01T05:39:45;99697.85;;;13.97
48628;BMP280;34424;52.234;6.500;2023-08-01T05:44:45;99697.05;;;14.02
48628;BMP280;34424;52.234;6.500;2023-08-01T05:49:45;99697.26;;;14.15
48628;BMP280;34424;52.234;6.500;2023-08-01T05:54:45;99702.7;;;14.75
48628;BMP280;34424;52.234;6.500;2023-08-01T05:59:45;99704.62;;;15.79
48628;BMP280;34424;52.234;6.500;2023-08-01T06:04:45;99704.67;;;15.79
48628;BMP280;34424;52.234;6.500;2023-08-01T06:09:45;99711.4;;;16.1
48628;BMP280;34424;52.234;6.500;2023-08-01T06:14:46;99705.94;;;15.85
48628;BMP280;34424;52.234;6.500;2023-08-01T06:19:45;99702.5;;;15.74
48628;BMP280;34424;52.234;6.500;2023-08-01T06:24:45;99700.73;;;15.58
48628;BMP280;34424;52.234;6.500;2023-08-01T06:29:45;99705.92;;;15.41
48628;BMP280;34424;52.234;6.500;2023-08-01T06:34:45;99706.84;;;15.13
48628;BMP280;34424;52.234;6.500;2023-08-01T06:39:45;99707.97;;;14.88
48628;BMP280;34424;52.234;6.500;2023-08-01T06:44:45;99708.23;;;14.85
48628;BMP280;34424;52.234;6.500;2023-08-01T06:49:45;99700.44;;;14.79
48628;BMP280;34424;52.234;6.500;2023-08-01T06:54:45;99705.7;;;15.02
48628;BMP280;34424;52.234;6.500;2023-08-01T06:59:45;99704.24;;;15.14
48628;BMP280;34424;52.234;6.500;2023-08-01T07:04:45;99696.22;;;15.43
48628;BMP280;34424;52.234;6.500;2023-08-01T07:09:45;99694.53;;;15.73
48628;BMP280;34424;52.234;6.500;2023-08-01T07:14:45;99703.1;;;16.19
48628;BMP280;34424;52.234;6.500;2023-08-01T07:19:45;99702.03;;;17.34
48628;BMP280;34424;52.234;6.500;2023-08-01T07:24:45;99703.8;;;19.69
48628;BMP280;34424;52.234;6.500;2023-08-01T07:29:45;99709.3;;;20.63
48628;BMP280;34424;52.234;6.500;2023-08-01T07:34:45;99710.59;;;20.55
48628;BMP280;34424;52.234;6.500;2023-08-01T07:39:45;99713.13;;;18.25
48628;BMP280;34424;52.234;6.500;2023-08-01T07:44:45;99705.11;;;17.83
48628;BMP280;34424;52.234;6.500;2023-08-01T07:49:45;99714.23;;;17.87
48628;BMP280;34424;52.234;6.500;2023-08-01T07:54:45;99723.63;;;17.33
48628;BMP280;34424;52.234;6.500;2023-08-01T07:59:45;99720.27;;;18
48628;BMP280;34424;52.234;6.500;2023-08-01T08:04:45;99722.16;;;19.4
48628;BMP280;34424;52.234;6.500;2023-08-01T08:09:45;99723.84;;;19.56
48628;BMP280;34424;52.234;6.500;2023-08-01T08:14:45;99722.89;;;20.47
48628;BMP280;34424;52.234;6.500;2023-08-01T08:19:45;99727.42;;;21.05
48628;BMP280;34424;52.234;6.500;2023-08-01T08:24:45;99722.31;;;20.15
48628;BMP280;34424;52.234;6.500;2023-08-01T08:29:45;99733.48;;;20.49
48628;BMP280;34424;52.234;6.500;2023-08-01T08:34:45;99731.2;;;20.44
48628;BMP280;34424;52.234;6.500;2023-08-01T08:39:45;99722.89;;;20.47
48628;BMP280;34424;52.234;6.500;2023-08-01T08:44:45;99722.77;;;21.66
48628;BMP280;34424;52.234;6.500;2023-08-01T08:49:45;99717.11;;;21.06
48628;BMP280;34424;52.234;6.500;2023-08-01T08:54:45;99737.37;;;18.29
48628;BMP280;34424;52.234;6.500;2023-08-01T08:59:45;99744.91;;;16.26
48628;BMP280;34424;52.234;6.500;2023-08-01T09:04:45;99739.86;;;15.76
48628;BMP280;34424;52.234;6.500;2023-08-01T09:09:45;99739.6;;;15.77
48628;BMP280;34424;52.234;6.500;2023-08-01T09:14:45;99740.25;;;17.8
48628;BMP280;34424;52.234;6.500;2023-08-01T09:19:45;99742.03;;;20.39
48628;BMP280;34424;52.234;6.500;2023-08-01T09:24:53;99740.75;;;20.52
48628;BMP280;34424;52.234;6.500;2023-08-01T09:29:45;99742.25;;;20.62
48628;BMP280;34424;52.234;6.500;2023-08-01T09:34:45;99749.3;;;20.9
48628;BMP280;34424;52.234;6.500;2023-08-01T09:39:45;99755.03;;;21.94
48628;BMP280;34424;52.234;6.500;2023-08-01T09:44:45;99755.76;;;22.59
48628;BMP280;34424;52.234;6.500;2023-08-01T09:49:50;99759.75;;;23.1
48628;BMP280;34424;52.234;6.500;2023-08-01T09:54:45;99763.76;;;22.81
48628;BMP280;34424;52.234;6.500;2023-08-01T09:58:54;99767.09;;;22.34
48628;BMP280;34424;52.234;6.500;2023-08-01T10:03:53;99765.55;;;21.48
48628;BMP280;34424;52.234;6.500;2023-08-01T10:08:53;99763.77;;;22.74
48628;BMP280;34424;52.234;6.500;2023-08-01T10:13:53;99767.17;;;22.11
48628;BMP280;34424;52.234;6.500;2023-08-01T10:18:53;99758.82;;;22.47
48628;BMP280;34424;52.234;6.500;2023-08-01T10:23:53;99778.06;;;21.19
48628;BMP280;34424;52.234;6.500;2023-08-01T10:28:53;99775.76;;;21.15
48628;BMP280;34424;52.234;6.500;2023-08-01T10:34:02;99772.89;;;22.39
48628;BMP280;34424;52.234;6.500;2023-08-01T10:38:53;99781.41;;;22.29
48628;BMP280;34424;52.234;6.500;2023-08-01T10:43:53;99779.45;;;24.11
48628;BMP280;34424;52.234;6.500;2023-08-01T10:48:53;99774.47;;;23.61
48628;BMP280;34424;52.234;6.500;2023-08-01T10:53:53;99813.8;;;20.84
48628;BMP280;34424;52.234;6.500;2023-08-01T10:58:53;99803.8;;;17.52
48628;BMP280;34424;52.234;6.500;2023-08-01T11:03:53;99804.59;;;16.93
48628;BMP280;34424;52.234;6.500;2023-08-01T11:08:53;99815.1;;;16.9
48628;BMP280;34424;52.234;6.500;2023-08-01T11:13:53;99819.58;;;16.72
48628;BMP280;34424;52.234;6.500;2023-08-01T11:18:53;99820.7;;;16.96
48628;BMP280;34424;52.234;6.500;2023-08-01T11:23:53;99818.17;;;20.5
48628;BMP280;34424;52.234;6.500;2023-08-01T11:28:53;99810.01;;;22.85
48628;BMP280;34424;52.234;6.500;2023-08-01T11:33:58;99815.41;;;21.6
48628;BMP280;34424;52.234;6.500;2023-08-01T11:38:53;99827.82;;;20.46
48628;BMP280;34424;52.234;6.500;2023-08-01T11:43:53;99821.05;;;20.79
48628;BMP280;34424;52.234;6.500;2023-08-01T11:48:53;99838.02;;;23.39
48628;BMP280;34424;52.234;6.500;2023-08-01T11:54:01;99831.51;;;24.39
48628;BMP280;34424;52.234;6.500;2023-08-01T11:58:53;99827.34;;;25.52
48628;BMP280;34424;52.234;6.500;2023-08-01T12:03:54;99848.25;;;26.15
48628;BMP280;34424;52.234;6.500;2023-08-01T12:08:53;99842.52;;;22.75
48628;BMP280;34424;52.234;6.500;2023-08-01T12:14:03;99845.27;;;20.38
48628;BMP280;34424;52.234;6.500;2023-08-01T12:18:53;99838.42;;;21.49
48628;BMP280;34424;52.234;6.500;2023-08-01T12:23:53;99834.03;;;22.93
48628;BMP280;34424;52.234;6.500;2023-08-01T12:28:53;99832.3;;;23.4
48628;BMP280;34424;52.234;6.500;2023-08-01T12:33:53;99831.42;;;24.95
48628;BMP280;34424;52.234;6.500;2023-08-01T12:38:53;99840.83;;;25.04
48628;BMP280;34424;52.234;6.500;2023-08-01T12:43:53;99851.58;;;22.43
48628;BMP280;34424;52.234;6.500;2023-08-01T12:48:53;99861.42;;;22.15
48628;BMP280;34424;52.234;6.500;2023-08-01T12:53:53;99863.95;;;22.74
48628;BMP280;34424;52.234;6.500;2023-08-01T12:58:53;99869.02;;;21.1
48628;BMP280;34424;52.234;6.500;2023-08-01T13:03:53;99879.09;;;21.37
48628;BMP280;34424;52.234;6.500;2023-08-01T13:08:53;99887.95;;;20.71
48628;BMP280;34424;52.234;6.500;2023-08-01T13:13:53;99883.77;;;22.8
48628;BMP280;34424;52.234;6.500;2023-08-01T13:18:53;99894.06;;;21.79
48628;BMP280;34424;52.234;6.500;2023-08-01T13:23:53;99894.52;;;20.39
48628;BMP280;34424;52.234;6.500;2023-08-01T13:28:53;99900.49;;;19.82
48628;BMP280;34424;52.234;6.500;2023-08-01T13:33:53;99901.54;;;19.78
48628;BMP280;34424;52.234;6.500;2023-08-01T13:38:53;99909.91;;;20.66
48628;BMP280;34424;52.234;6.500;2023-08-01T13:43:53;99916.41;;;21.36
48628;BMP280;34424;52.234;6.500;2023-08-01T13:48:53;99917.53;;;20.94
48628;BMP280;34424;52.234;6.500;2023-08-01T13:53:53;99920.43;;;20.45
48628;BMP280;34424;52.234;6.500;2023-08-01T13:58:53;99920.89;;;20.53
48628;BMP280;34424;52.234;6.500;2023-08-01T14:03:53;99920.08;;;22.26
48628;BMP280;34424;52.234;6.500;2023-08-01T14:08:53;99911.2;;;22.89
48628;BMP280;34424;52.234;6.500;2023-08-01T14:13:53;99917.55;;;23.05
48628;BMP280;34424;52.234;6.500;2023-08-01T14:18:53;99925.16;;;21.93
48628;BMP280;34424;52.234;6.500;2023-08-01T14:23:53;99929.99;;;21.19
48628;BMP280;34424;52.234;6.500;2023-08-01T14:28:53;99938.3;;;21.48
48628;BMP280;34424;52.234;6.500;2023-08-01T14:33:53;99951.5;;;20.59
48628;BMP280;34424;52.234;6.500;2023-08-01T14:38:53;99955.66;;;19.96
48628;BMP280;34424;52.234;6.500;2023-08-01T14:43:53;99958.48;;;20.18
48628;BMP280;34424;52.234;6.500;2023-08-01T14:48:53;99963.69;;;19.6
48628;BMP280;34424;52.234;6.500;2023-08-01T14:53:53;99965.91;;;19.09
48628;BMP280;34424;52.234;6.500;2023-08-01T14:58:53;99961.81;;;18.79
48628;BMP280;34424;52.234;6.500;2023-08-01T15:03:53;99965.34;;;19.23
48628;BMP280;34424;52.234;6.500;2023-08-01T15:08:53;99967.08;;;19.46
48628;BMP280;34424;52.234;6.500;2023-08-01T15:13:53;99971.42;;;19.68
48628;BMP280;34424;52.234;6.500;2023-08-01T15:18:53;99982.73;;;19.25
48628;BMP280;34424;52.234;6.500;2023-08-01T15:23:53;100016.6;;;17.47
48628;BMP280;34424;52.234;6.500;2023-08-01T15:28:53;100011.6;;;15.74
48628;BMP280;34424;52.234;6.500;2023-08-01T15:33:53;100019.7;;;15.19
48628;BMP280;34424;52.234;6.500;2023-08-01T15:38:53;100021.5;;;15.24
48628;BMP280;34424;52.234;6.500;2023-08-01T15:43:53;100013.7;;;15.29
48628;BMP280;34424;52.234;6.500;2023-08-01T15:48:53;100007.7;;;15.42
48628;BMP280;34424;52.234;6.500;2023-08-01T15:53:53;100004.2;;;16.02
48628;BMP280;34424;52.234;6.500;2023-08-01T15:58:53;100007.8;;;16.81
48628;BMP280;34424;52.234;6.500;2023-08-01T16:03:53;100014.9;;;17.22
48628;BMP280;34424;52.234;6.500;2023-08-01T16:08:53;100026.4;;;17.41
48628;BMP280;34424;52.234;6.500;2023-08-01T16:13:53;100037.5;;;16.98
48628;BMP280;34424;52.234;6.500;2023-08-01T16:18:53;100050;;;16.35
48628;BMP280;34424;52.234;6.500;2023-08-01T16:23:53;100044.6;;;15.65
48628;BMP280;34424;52.234;6.500;2023-08-01T16:28:53;100036.8;;;15.35
48628;BMP280;34424;52.234;6.500;2023-08-01T16:33:53;100034.4;;;15.38
48628;BMP280;34424;52.234;6.500;2023-08-01T16:38:53;100039.8;;;15.52
48628;BMP280;34424;52.234;6.500;2023-08-01T16:43:53;100040.7;;;15.84
48628;BMP280;34424;52.234;6.500;2023-08-01T16:48:53;100033.6;;;16.01
48628;BMP280;34424;52.234;6.500;2023-08-01T16:53:53;100041.7;;;16.05
48628;BMP280;34424;52.234;6.500;2023-08-01T16:58:53;100039.4;;;16.16
48628;BMP280;34424;52.234;6.500;2023-08-01T17:03:53;100052.3;;;16.27
48628;BMP280;34424;52.234;6.500;2023-08-01T17:08:53;100053.4;;;17.05
48628;BMP280;34424;52.234;6.500;2023-08-01T17:13:53;100053.8;;;16.85
48628;BMP280;34424;52.234;6.500;2023-08-01T17:18:53;100056.6;;;16.77
48628;BMP280;34424;52.234;6.500;2023-08-01T17:23:53;100061.4;;;16.61
48628;BMP280;34424;52.234;6.500;2023-08-01T17:28:53;100059;;;16.47
48628;BMP280;34424;52.234;6.500;2023-08-01T17:33:53;100067.7;;;16.23
48628;BMP280;34424;52.234;6.500;2023-08-01T17:38:53;100060.6;;;15.86
48628;BMP280;34424;52.234;6.500;2023-08-01T17:43:54;100054.5;;;16.06
48628;BMP280;34424;52.234;6.500;2023-08-01T17:48:53;100056.9;;;16.06
48628;BMP280;34424;52.234;6.500;2023-08-01T17:53:53;100060;;;16.08
48628;BMP280;34424;52.234;6.500;2023-08-01T17:58:53;100061;;;15.93
48628;BMP280;34424;52.234;6.500;2023-08-01T18:03:53;100065.3;;;15.84
48628;BMP280;34424;52.234;6.500;2023-08-01T18:08:53;100070.4;;;15.83
48628;BMP280;34424;52.234;6.500;2023-08-01T18:13:53;100070.1;;;15.73
48628;BMP280;34424;52.234;6.500;2023-08-01T18:18:53;100065.6;;;15.59
48628;BMP280;34424;52.234;6.500;2023-08-01T18:23:53;100068.3;;;15.43
48628;BMP280;34424;52.234;6.500;2023-08-01T18:28:53;100068.8;;;15.35
48628;BMP280;34424;52.234;6.500;2023-08-01T18:33:53;100070.8;;;15.28
48628;BMP280;34424;52.234;6.500;2023-08-01T18:38:53;100072.2;;;15.31
48628;BMP280;34424;52.234;6.500;2023-08-01T18:43:53;100090.3;;;15.3
48628;BMP280;34424;52.234;6.500;2023-08-01T18:48:53;100090.1;;;15.2
48628;BMP280;34424;52.234;6.500;2023-08-01T18:53:53;100096.1;;;15.02
48628;BMP280;34424;52.234;6.500;2023-08-01T18:58:53;100090.6;;;15
48628;BMP280;34424;52.234;6.500;2023-08-01T19:03:54;100095.2;;;15.04
48628;BMP280;34424;52.234;6.500;2023-08-01T19:08:53;100101.7;;;15.05
48628;BMP280;34424;52.234;6.500;2023-08-01T19:13:53;100119.8;;;15.06
48628;BMP280;34424;52.234;6.500;2023-08-01T19:18:53;100117.7;;;14.91
48628;BMP280;34424;52.234;6.500;2023-08-01T19:23:53;100114.5;;;14.67
48628;BMP280;34424;52.234;6.500;2023-08-01T19:28:53;100123.3;;;14.52
48628;BMP280;34424;52.234;6.500;2023-08-01T19:33:53;100124.1;;;14.48
48628;BMP280;34424;52.234;6.500;2023-08-01T19:38:53;100123.6;;;14.43
48628;BMP280;34424;52.234;6.500;2023-08-01T19:43:53;100128.5;;;14.35
48628;BMP280;34424;52.234;6.500;2023-08-01T19:48:53;100133.4;;;14.26
48628;BMP280;34424;52.234;6.500;2023-08-01T19:53:53;100127;;;14.21
48628;BMP280;34424;52.234;6.500;2023-08-01T19:58:53;100130.7;;;14.24
48628;BMP280;34424;52.234;6.500;2023-08-01T20:03:53;100122.3;;;14.23
48628;BMP280;34424;52.234;6.500;2023-08-01T20:08:53;100125.8;;;14.25
48628;BMP280;34424;52.234;6.500;2023-08-01T20:13:53;100127.1;;;14.28
48628;BMP280;34424;52.234;6.500;2023-08-01T20:18:53;100128.6;;;14.27
48628;BMP280;34424;52.234;6.500;2023-08-01T20:23:53;100130;;;14.27
48628;BMP280;34424;52.234;6.500;2023-08-01T20:28:53;100127.7;;;14.26
48628;BMP280;34424;52.234;6.500;2023-08-01T20:33:53;100130;;;14.23
48628;BMP280;34424;52.234;6.500;2023-08-01T20:38:53;100127.2;;;14.21
48628;BMP280;34424;52.234;6.500;2023-08-01T20:43:53;100112.3;;;14.14
48628;BMP280;34424;52.234;6.500;2023-08-01T20:48:53;100119.7;;;14.13
48628;BMP280;34424;52.234;6.500;2023-08-01T20:53:53;100120.6;;;14.04
48628;BMP280;34424;52.234;6.500;2023-08-01T20:58:53;100124.7;;;13.98
48628;BMP280;34424;52.234;6.500;2023-08-01T21:03:53;100116.3;;;13.95
48628;BMP280;34424;52.234;6.500;2023-08-01T21:08:53;100112.8;;;14
48628;BMP280;34424;52.234;6.500;2023-08-01T21:13:53;100114.4;;;14.09
48628;BMP280;34424;52.234;6.500;2023-08-01T21:18:53;100112;;;14.11
48628;BMP280;34424;52.234;6.500;2023-08-01T21:23:53;100114.5;;;14.08
48628;BMP280;34424;52.234;6.500;2023-08-01T21:28:53;100118.4;;;14.06
48628;BMP280;34424;52.234;6.500;2023-08-01T21:33:53;100117;;;13.99
48628;BMP280;34424;52.234;6.500;2023-08-01T21:38:53;100113.6;;;13.93
48628;BMP280;34424;52.234;6.500;2023-08-01T21:43:53;100116.9;;;13.82
48628;BMP280;34424;52.234;6.500;2023-08-01T21:48:53;100114;;;13.9
48628;BMP280;34424;52.234;6.500;2023-08-01T21:53:53;100115.5;;;13.91
48628;BMP280;34424;52.234;6.500;2023-08-01T21:58:53;100113.1;;;13.94
48628;BMP280;34424;52.234;6.500;2023-08-01T22:03:53;100104.5;;;13.96
48628;BMP280;34424;52.234;6.500;2023-08-01T22:08:53;100109.8;;;13.95
48628;BMP280;34424;52.234;6.500;2023-08-01T22:13:53;100108.5;;;13.98
48628;BMP280;34424;52.234;6.500;2023-08-01T22:18:53;100111.9;;;14.01
48628;BMP280;34424;52.234;6.500;2023-08-01T22:23:53;100108.3;;;14.06
48628;BMP280;34424;52.234;6.500;2023-08-01T22:28:53;100108.4;;;14.1
48628;BMP280;34424;52.234;6.500;2023-08-01T22:33:53;100110.2;;;14.16
48628;BMP280;34424;52.234;6.500;2023-08-01T22:38:53;100109.1;;;14.21
48628;BMP280;34424;52.234;6.500;2023-08-01T22:43:56;100100.4;;;14.24
48628;BMP280;34424;52.234;6.500;2023-08-01T22:48:53;100092.2;;;14.18
48628;BMP280;34424;52.234;6.500;2023-08-01T22:53:53;100099.4;;;14.14
48628;BMP280;34424;52.234;6.500;2023-08-01T22:58:53;100105.3;;;14.09
48628;BMP280;34424;52.234;6.500;2023-08-01T23:03:53;100102.3;;;13.97
48628;BMP280;34424;52.234;6.500;2023-08-01T23:08:53;100104;;;13.77
48628;BMP280;34424;52.234;6.500;2023-08-01T23:13:54;100105;;;13.59
48628;BMP280;34424;52.234;6.500;2023-08-01T23:18:53;100098.9;;;13.42
48628;BMP280;34424;52.234;6.500;2023-08-01T23:23:53;100093.8;;;13.28
48628;BMP280;34424;52.234;6.500;2023-08-01T23:28:53;100090.8;;;13.18
48628;BMP280;34424;52.234;6.500;2023-08-01T23:33:53;100077.6;;;12.96
48628;BMP280;34424;52.234;6.500;2023-08-01T23:38:53;100073.7;;;12.77
48628;BMP280;34424;52.234;6.500;2023-08-01T23:43:53;100074.8;;;12.62
48628;BMP280;34424;52.234;6.500;2023-08-01T23:48:53;100068.6;;;12.49
48628;BMP280;34424;52.234;6.500;2023-08-01T23:53:53;100055.9;;;12.38
48628;BMP280;34424;52.234;6.500;2023-08-01T23:58:53;100052.3;;;12.35
